createdAt,value
2018-07-21T00:00:16.279Z,6.10
2018-07-21T00:02:44.421Z,5.97
2018-07-21T00:05:12.511Z,5.95
2018-07-21T00:07:40.487Z,5.67
2018-07-21T00:10:08.748Z,6.12
2018-07-21T00:12:36.690Z,6.62
2018-07-21T00:15:04.890Z,6.17
2018-07-21T00:17:33.339Z,5.67
2018-07-21T00:20:01.290Z,6.45
2018-07-21T00:22:29.346Z,6.20
2018-07-21T00:24:57.484Z,5.58
2018-07-21T00:27:25.568Z,6.17
2018-07-21T00:29:53.695Z,6.97
2018-07-21T00:32:21.597Z,5.63
2018-07-21T00:34:49.570Z,5.90
2018-07-21T00:37:17.891Z,6.60
2018-07-21T00:39:46.970Z,6.03
2018-07-21T00:42:14.985Z,6.03
2018-07-21T00:44:43.127Z,6.50
2018-07-21T00:47:11.554Z,5.97
2018-07-21T00:49:39.477Z,6.22
2018-07-21T00:52:07.430Z,5.83
2018-07-21T00:54:35.557Z,6.10
2018-07-21T00:57:03.522Z,5.65
2018-07-21T00:59:31.594Z,6.00
2018-07-21T01:01:59.533Z,5.50
2018-07-21T01:04:27.634Z,6.53
2018-07-21T01:06:55.684Z,5.70
2018-07-21T01:09:23.936Z,5.53
2018-07-21T01:11:51.946Z,6.50
2018-07-21T01:14:20.108Z,5.53
2018-07-21T01:16:48.128Z,6.05
2018-07-21T01:19:16.320Z,6.33
2018-07-21T01:21:44.257Z,6.25
2018-07-21T01:24:12.365Z,5.53
2018-07-21T01:26:40.460Z,5.62
2018-07-21T01:29:08.557Z,6.03
2018-07-21T01:31:36.710Z,5.75
2018-07-21T01:34:09.319Z,5.75
2018-07-21T01:36:37.877Z,5.70
2018-07-21T01:39:08.543Z,6.58
2018-07-21T01:41:36.572Z,6.30
2018-07-21T01:44:04.743Z,6.30
2018-07-21T01:46:32.710Z,6.42
2018-07-21T01:49:00.683Z,6.03
2018-07-21T01:51:32.645Z,6.03
2018-07-21T01:54:01.731Z,6.22
2018-07-21T01:56:29.735Z,6.47
2018-07-21T01:58:57.927Z,6.62
2018-07-21T02:01:25.889Z,5.90
2018-07-21T02:03:54.015Z,6.28
2018-07-21T02:06:22.146Z,6.12
2018-07-21T02:08:50.114Z,5.95
2018-07-21T02:11:18.144Z,6.10
2018-07-21T02:13:46.263Z,5.78
2018-07-21T02:16:14.351Z,5.45
2018-07-21T02:18:42.324Z,6.00
2018-07-21T02:21:10.655Z,6.72
2018-07-21T02:23:38.662Z,5.72
2018-07-21T02:26:06.651Z,6.50
2018-07-21T02:28:34.867Z,6.60
2018-07-21T02:31:02.887Z,5.95
2018-07-21T02:33:31.013Z,6.15
2018-07-21T02:35:59.141Z,6.28
2018-07-21T02:38:27.110Z,6.47
2018-07-21T02:40:55.060Z,6.00
2018-07-21T02:43:23.190Z,5.87
2018-07-21T02:45:51.105Z,5.28
2018-07-21T02:48:19.153Z,5.67
2018-07-21T02:50:47.727Z,5.92
2018-07-21T02:53:15.680Z,6.27
2018-07-21T02:55:43.457Z,5.95
2018-07-21T02:58:11.847Z,5.35
2018-07-21T03:00:39.858Z,5.37
2018-07-21T03:03:07.759Z,5.33
2018-07-21T03:05:35.729Z,5.65
2018-07-21T03:08:03.800Z,5.40
2018-07-21T03:10:31.891Z,5.72
2018-07-21T03:13:00.092Z,5.20
2018-07-21T03:15:28.125Z,6.22
2018-07-21T03:17:56.207Z,5.87
2018-07-21T03:20:24.567Z,6.05
2018-07-21T03:22:52.613Z,5.60
2018-07-21T03:25:20.645Z,5.78
2018-07-21T03:27:49.003Z,5.12
2018-07-21T03:30:16.996Z,6.28
2018-07-21T03:32:44.984Z,6.10
2018-07-21T03:35:12.931Z,6.20
2018-07-21T03:37:41.013Z,6.30
2018-07-21T03:40:09.002Z,5.58
2018-07-21T03:42:37.010Z,5.97
2018-07-21T03:45:04.986Z,5.70
2018-07-21T03:47:33.040Z,5.67
2018-07-21T03:50:01.389Z,6.70
2018-07-21T03:52:29.533Z,6.03
2018-07-21T03:54:57.356Z,5.67
2018-07-21T03:57:25.644Z,6.42
2018-07-21T03:59:54.558Z,5.33
2018-07-21T04:02:22.457Z,6.25
2018-07-21T04:04:50.585Z,6.55
2018-07-21T04:07:18.533Z,5.80
2018-07-21T04:09:46.473Z,7.17
2018-07-21T04:12:15.034Z,6.55
2018-07-21T04:14:43.010Z,6.33
2018-07-21T04:17:16.904Z,6.10
2018-07-21T04:19:44.896Z,6.37
2018-07-21T04:22:13.069Z,5.97
2018-07-21T04:24:41.216Z,5.75
2018-07-21T04:27:09.395Z,4.83
2018-07-21T04:29:37.338Z,4.92
2018-07-21T04:32:05.409Z,5.17
2018-07-21T04:34:33.340Z,5.12
2018-07-21T04:37:01.449Z,5.47
2018-07-21T04:39:29.888Z,4.47
2018-07-21T04:41:57.971Z,4.50
2018-07-21T04:44:26.053Z,4.30
2018-07-21T04:46:54.338Z,4.92
2018-07-21T04:49:22.361Z,4.25
2018-07-21T04:51:50.413Z,4.83
2018-07-21T04:54:18.550Z,5.03
2018-07-21T04:56:46.580Z,4.50
2018-07-21T04:59:14.647Z,4.50
2018-07-21T05:01:42.787Z,4.90
2018-07-21T05:04:10.841Z,5.25
2018-07-21T05:06:38.804Z,4.42
2018-07-21T05:09:09.374Z,5.22
2018-07-21T05:11:37.850Z,5.22
2018-07-21T05:14:06.450Z,5.03
2018-07-21T05:16:34.486Z,5.50
2018-07-21T05:19:02.601Z,4.67
2018-07-21T05:21:30.478Z,4.85
2018-07-21T05:24:16.860Z,6.20
2018-07-21T05:26:45.041Z,5.10
2018-07-21T05:29:13.431Z,4.90
2018-07-21T05:31:41.392Z,5.10
2018-07-21T05:34:09.491Z,5.08
2018-07-21T05:36:37.540Z,5.17
2018-07-21T05:39:07.377Z,5.75
2018-07-21T05:41:35.350Z,5.87
2018-07-21T05:44:03.538Z,5.33
2018-07-21T05:46:31.407Z,5.55
2018-07-21T05:49:00.423Z,5.45
2018-07-21T05:51:28.475Z,5.65
2018-07-21T05:53:56.566Z,5.25
2018-07-21T05:56:24.593Z,5.45
2018-07-21T05:58:52.878Z,5.05
2018-07-21T06:01:20.937Z,5.22
2018-07-21T06:03:48.950Z,5.33
2018-07-21T06:06:17.070Z,4.90
2018-07-21T06:08:45.313Z,4.47
2018-07-21T06:11:13.194Z,4.90
2018-07-21T06:13:48.878Z,4.90
2018-07-21T06:16:16.989Z,4.92
2018-07-21T06:18:45.050Z,4.65
2018-07-21T06:21:13.515Z,5.17
2018-07-21T06:23:41.522Z,5.25
2018-07-21T06:26:09.668Z,5.20
2018-07-21T06:28:38.040Z,4.75
2018-07-21T06:31:06.265Z,5.15
2018-07-21T06:33:34.262Z,5.10
2018-07-21T06:36:02.375Z,4.90
2018-07-21T06:38:30.486Z,5.10
2018-07-21T06:40:58.310Z,5.40
2018-07-21T06:43:26.324Z,4.90
2018-07-21T06:45:55.260Z,5.03
2018-07-21T06:48:23.247Z,5.12
2018-07-21T06:50:51.423Z,5.37
2018-07-21T06:53:19.443Z,4.25
2018-07-21T06:55:47.408Z,5.53
2018-07-21T06:58:15.517Z,4.33
2018-07-21T07:00:43.672Z,4.90
2018-07-21T07:03:11.674Z,4.92
2018-07-21T07:05:40.023Z,5.28
2018-07-21T07:08:07.962Z,5.10
2018-07-21T07:10:35.912Z,4.97
2018-07-21T07:13:04.401Z,5.20
2018-07-21T07:15:32.480Z,4.90
2018-07-21T07:18:00.558Z,5.25
2018-07-21T07:20:29.231Z,4.90
2018-07-21T07:22:57.333Z,5.12
2018-07-21T07:25:25.267Z,4.72
2018-07-21T07:27:53.316Z,4.40
2018-07-21T07:30:21.213Z,4.72
2018-07-21T07:32:49.182Z,4.97
2018-07-21T07:35:17.147Z,4.97
2018-07-21T07:39:14.635Z,5.92
2018-07-21T07:41:42.578Z,4.92
2018-07-21T07:44:10.651Z,5.25
2018-07-21T07:46:38.687Z,4.25
2018-07-21T07:49:07.221Z,4.12
2018-07-21T07:51:35.213Z,4.92
2018-07-21T07:54:03.198Z,4.67
2018-07-21T07:56:31.321Z,4.15
2018-07-21T07:58:59.661Z,4.50
2018-07-21T08:01:27.803Z,3.65
2018-07-21T08:03:56.117Z,4.53
2018-07-21T08:06:24.104Z,4.10
2018-07-21T08:08:52.093Z,3.92
2018-07-21T08:11:20.249Z,4.00
2018-07-21T08:13:48.241Z,3.77
2018-07-21T08:16:16.234Z,4.37
2018-07-21T08:18:44.498Z,4.45
2018-07-21T08:21:12.853Z,4.20
2018-07-21T08:23:40.730Z,4.10
2018-07-21T08:26:08.761Z,3.87
2018-07-21T08:28:36.645Z,4.05
2018-07-21T08:31:04.511Z,4.45
2018-07-21T08:33:32.665Z,3.67
2018-07-21T08:36:01.764Z,3.87
2018-07-21T08:38:29.723Z,4.10
2018-07-21T08:40:58.128Z,4.10
2018-07-21T08:43:26.158Z,3.80
2018-07-21T08:45:54.170Z,3.58
2018-07-21T08:48:22.161Z,3.50
2018-07-21T08:50:50.106Z,3.65
2018-07-21T08:53:18.074Z,3.67
2018-07-21T08:55:46.434Z,3.45
2018-07-21T08:58:14.399Z,3.62
2018-07-21T09:00:42.495Z,3.50
2018-07-21T09:03:10.881Z,3.45
2018-07-21T09:05:39.069Z,4.20
2018-07-21T09:08:07.150Z,3.30
2018-07-21T09:10:35.443Z,3.37
2018-07-21T09:13:03.557Z,3.72
2018-07-21T09:15:31.421Z,4.58
2018-07-21T09:17:59.713Z,3.87
2018-07-21T09:20:27.790Z,3.85
2018-07-21T09:22:55.848Z,3.60
2018-07-21T09:25:24.386Z,3.85
2018-07-21T09:27:52.420Z,3.65
2018-07-21T09:30:20.572Z,4.10
2018-07-21T09:32:48.874Z,4.08
2018-07-21T09:35:16.767Z,3.90
2018-07-21T09:37:45.674Z,4.35
2018-07-21T09:40:13.674Z,4.33
2018-07-21T09:42:41.608Z,5.15
2018-07-21T09:45:09.491Z,4.03
2018-07-21T09:47:37.694Z,4.10
2018-07-21T09:50:06.699Z,4.80
2018-07-21T09:52:34.706Z,4.12
2018-07-21T09:55:03.034Z,4.03
2018-07-21T09:57:31.018Z,3.80
2018-07-21T09:59:58.935Z,4.10
2018-07-21T10:02:27.242Z,4.12
2018-07-21T10:04:55.474Z,4.15
2018-07-21T10:07:23.593Z,3.67
2018-07-21T10:09:51.891Z,4.12
2018-07-21T10:12:20.143Z,4.28
2018-07-21T10:14:48.206Z,4.40
2018-07-21T10:17:16.439Z,3.67
2018-07-21T10:19:44.563Z,3.92
2018-07-21T10:22:12.584Z,3.20
2018-07-21T10:24:46.303Z,3.30
2018-07-21T10:27:15.262Z,2.75
2018-07-21T10:29:43.275Z,3.02
2018-07-21T10:32:11.909Z,2.98
2018-07-21T10:34:39.931Z,2.90
2018-07-21T10:37:07.925Z,2.90
2018-07-21T10:39:36.108Z,3.58
2018-07-21T10:42:04.071Z,3.67
2018-07-21T10:46:01.454Z,2.90
2018-07-21T10:48:29.466Z,2.85
2018-07-21T10:50:57.385Z,2.58
2018-07-21T10:53:25.511Z,2.65
2018-07-21T10:55:53.461Z,2.67
2018-07-21T10:58:21.342Z,2.90
2018-07-21T11:00:49.377Z,2.72
2018-07-21T11:03:17.280Z,3.12
2018-07-21T11:05:45.153Z,2.45
2018-07-21T11:08:14.152Z,2.42
2018-07-21T11:10:42.154Z,2.50
2018-07-21T11:13:10.241Z,2.90
2018-07-21T11:15:38.258Z,2.87
2018-07-21T11:18:06.155Z,2.72
2018-07-21T11:20:34.275Z,2.02
2018-07-21T11:23:02.289Z,2.87
2018-07-21T11:25:30.360Z,2.75
2018-07-21T11:27:58.426Z,3.02
2018-07-21T11:30:26.640Z,2.67
2018-07-21T11:32:54.557Z,3.00
2018-07-21T11:35:22.731Z,2.95
2018-07-21T11:37:50.916Z,2.92
2018-07-21T11:40:18.893Z,2.75
2018-07-21T11:42:46.824Z,2.90
2018-07-21T11:45:15.059Z,3.05
2018-07-21T11:47:42.984Z,2.72
2018-07-21T11:50:11.131Z,3.22
2018-07-21T11:52:39.356Z,3.10
2018-07-21T11:55:07.671Z,2.30
2018-07-21T11:57:35.583Z,2.50
2018-07-21T12:00:03.717Z,2.70
2018-07-21T12:02:31.826Z,2.87
2018-07-21T12:04:59.906Z,2.45
2018-07-21T12:07:28.421Z,2.55
2018-07-21T12:09:56.509Z,2.62
2018-07-21T12:12:24.422Z,2.47
2018-07-21T12:14:52.343Z,2.45
2018-07-21T12:17:20.431Z,2.45
2018-07-21T12:19:48.440Z,3.20
2018-07-21T12:22:16.810Z,2.62
2018-07-21T12:24:44.726Z,2.83
2018-07-21T12:27:12.647Z,2.45
2018-07-21T12:29:40.891Z,2.50
2018-07-21T12:32:08.834Z,2.98
2018-07-21T12:34:36.818Z,2.30
2018-07-21T12:37:05.042Z,2.75
2018-07-21T12:39:33.091Z,2.92
2018-07-21T12:42:01.019Z,2.87
2018-07-21T12:44:29.163Z,3.10
2018-07-21T12:46:57.239Z,2.25
2018-07-21T12:49:25.463Z,2.90
2018-07-21T12:51:53.578Z,2.92
2018-07-21T12:54:21.716Z,2.90
2018-07-21T12:56:49.744Z,3.10
2018-07-21T12:59:17.714Z,2.98
2018-07-21T13:01:45.677Z,3.52
2018-07-21T13:04:13.666Z,2.52
2018-07-21T13:06:41.603Z,2.98
2018-07-21T13:09:11.005Z,3.22
2018-07-21T13:11:39.194Z,3.00
2018-07-21T13:14:07.343Z,3.10
2018-07-21T13:16:35.699Z,3.10
2018-07-21T13:19:03.893Z,2.95
2018-07-21T13:21:32.018Z,3.08
2018-07-21T13:30:44.445Z,3.10
2018-07-21T13:33:12.442Z,3.08
2018-07-21T13:35:40.514Z,3.50
2018-07-21T13:38:39.667Z,3.27
2018-07-21T13:41:07.719Z,3.20
2018-07-21T13:43:35.672Z,3.60
2018-07-21T13:46:04.003Z,4.05
2018-07-21T13:48:32.126Z,3.42
2018-07-21T13:51:00.080Z,4.03
2018-07-21T13:53:28.260Z,3.70
2018-07-21T13:55:56.214Z,4.33
2018-07-21T13:58:24.354Z,4.10
2018-07-21T14:00:52.804Z,4.03
2018-07-21T14:03:20.767Z,3.62
2018-07-21T14:05:48.735Z,3.83
2018-07-21T14:08:16.959Z,3.55
2018-07-21T14:10:45.070Z,3.80
2018-07-21T14:13:13.023Z,3.47
2018-07-21T14:15:41.011Z,4.03
2018-07-21T14:18:09.120Z,3.45
2018-07-21T14:20:37.181Z,3.47
2018-07-21T14:23:05.202Z,3.60
2018-07-21T14:25:33.254Z,2.90
2018-07-21T14:28:01.326Z,2.65
2018-07-21T14:30:29.543Z,2.77
2018-07-21T14:32:57.603Z,2.90
2018-07-21T14:35:25.484Z,2.80
2018-07-21T14:37:53.837Z,2.77
2018-07-21T14:40:21.903Z,3.25
2018-07-21T14:42:49.897Z,3.30
2018-07-21T14:45:18.446Z,3.05
2018-07-21T14:47:46.407Z,3.10
2018-07-21T14:50:14.321Z,2.47
2018-07-21T14:52:42.530Z,2.95
2018-07-21T14:55:10.663Z,3.02
2018-07-21T14:57:38.761Z,2.80
2018-07-21T15:00:07.126Z,2.55
2018-07-21T15:02:35.125Z,2.85
2018-07-21T15:05:03.296Z,3.15
2018-07-21T15:07:31.694Z,2.70
2018-07-21T15:09:59.701Z,3.02
2018-07-21T15:12:27.770Z,2.75
2018-07-21T15:14:56.293Z,3.12
2018-07-21T15:17:24.525Z,2.92
2018-07-21T15:19:52.577Z,2.95
2018-07-21T15:22:20.809Z,2.62
2018-07-21T15:24:48.757Z,3.40
2018-07-21T15:27:16.926Z,3.08
2018-07-21T15:29:44.970Z,3.30
2018-07-21T15:32:12.955Z,3.52
2018-07-21T15:34:40.997Z,3.08
2018-07-21T15:37:09.874Z,3.27
2018-07-21T15:39:38.020Z,3.20
2018-07-21T15:42:06.133Z,3.20
2018-07-21T15:44:34.259Z,3.55
2018-07-21T15:47:02.048Z,3.98
2018-07-21T15:49:29.998Z,2.92
2018-07-21T15:51:58.108Z,3.50
2018-07-21T15:54:26.214Z,3.50
2018-07-21T15:56:54.141Z,3.12
2018-07-21T15:59:22.186Z,2.83
2018-07-21T16:01:50.227Z,3.58
2018-07-21T16:04:18.319Z,2.98
2018-07-21T16:06:46.272Z,3.00
2018-07-21T16:09:14.163Z,3.10
2018-07-21T16:11:42.104Z,2.87
2018-07-21T16:14:10.266Z,3.00
2018-07-21T16:16:38.178Z,3.33
2018-07-21T16:19:06.261Z,3.25
2018-07-21T16:21:34.398Z,3.37
2018-07-21T16:24:02.458Z,3.60
2018-07-21T16:26:30.533Z,3.27
2018-07-21T16:28:58.666Z,3.33
2018-07-21T16:31:26.535Z,3.60
2018-07-21T16:33:54.439Z,3.27
2018-07-21T16:36:22.548Z,3.47
2018-07-21T16:38:50.527Z,3.25
2018-07-21T16:41:18.449Z,2.98
2018-07-21T16:43:46.982Z,3.35
2018-07-21T16:46:15.033Z,3.17
2018-07-21T16:48:43.042Z,3.45
2018-07-21T16:52:40.731Z,3.47
2018-07-21T16:55:08.645Z,3.40
2018-07-21T16:57:36.456Z,3.70
2018-07-21T17:00:04.498Z,3.05
2018-07-21T17:02:32.468Z,3.47
2018-07-21T17:05:00.517Z,3.65
2018-07-21T17:07:28.567Z,3.70
2018-07-21T17:09:56.456Z,3.60
2018-07-21T17:12:24.334Z,3.42
2018-07-21T17:14:52.517Z,3.00
2018-07-21T17:17:20.388Z,3.50
2018-07-21T17:19:48.295Z,3.52
2018-07-21T17:22:16.214Z,3.42
2018-07-21T17:24:44.274Z,3.00
2018-07-21T17:27:12.276Z,3.10
2018-07-21T17:29:40.346Z,3.55
2018-07-21T17:32:08.141Z,3.12
2018-07-21T17:34:36.047Z,3.62
2018-07-21T17:37:04.187Z,3.12
2018-07-21T17:39:32.255Z,3.77
2018-07-21T17:42:00.103Z,4.28
2018-07-21T17:44:28.097Z,3.70
2018-07-21T17:46:55.932Z,4.03
2018-07-21T17:49:23.878Z,3.83
2018-07-21T17:51:51.759Z,3.65
2018-07-21T17:54:19.663Z,4.20
2018-07-21T17:56:47.709Z,4.87
2018-07-21T17:59:15.947Z,5.60
2018-07-21T18:01:43.741Z,5.55
2018-07-21T18:04:11.752Z,5.53
2018-07-21T18:06:39.850Z,4.67
2018-07-21T18:09:09.022Z,5.20
2018-07-21T18:11:36.936Z,5.45
2018-07-21T18:14:05.340Z,8.25
2018-07-21T18:16:33.176Z,6.65
2018-07-21T18:19:01.185Z,20.60
2018-07-21T18:21:29.260Z,10.43
2018-07-21T18:23:57.589Z,6.15
2018-07-21T18:26:25.635Z,6.33
2018-07-21T18:28:53.718Z,6.20
2018-07-21T18:31:21.760Z,6.00
2018-07-21T18:33:49.687Z,5.95
2018-07-21T18:36:17.620Z,5.92
2018-07-21T18:38:45.482Z,5.95
2018-07-21T18:41:13.256Z,5.55
2018-07-21T18:43:41.523Z,5.17
2018-07-21T18:46:09.546Z,5.12
2018-07-21T18:48:37.667Z,4.90
2018-07-21T18:51:05.666Z,5.25
2018-07-21T18:53:33.674Z,5.08
2018-07-21T18:56:01.454Z,5.58
2018-07-21T18:58:29.638Z,6.22
2018-07-21T19:00:57.445Z,5.70
2018-07-21T19:03:25.366Z,5.90
2018-07-21T19:05:53.394Z,5.87
2018-07-21T19:08:23.224Z,5.87
2018-07-21T19:10:52.684Z,5.08
2018-07-21T19:13:21.217Z,5.12
2018-07-21T19:15:54.624Z,4.30
2018-07-21T19:18:22.591Z,4.65
2018-07-21T19:20:56.030Z,4.90
2018-07-21T19:23:24.052Z,5.17
2018-07-21T19:25:57.651Z,4.67
2018-07-21T19:28:26.198Z,4.75
2018-07-21T19:30:54.439Z,4.78
2018-07-21T19:33:22.489Z,5.00
2018-07-21T19:35:51.018Z,5.72
2018-07-21T19:38:19.026Z,5.20
2018-07-21T19:40:46.985Z,5.55
2018-07-21T19:43:15.635Z,5.35
2018-07-21T19:45:43.565Z,4.95
2018-07-21T19:48:11.506Z,5.60
2018-07-21T19:50:39.710Z,5.97
2018-07-21T19:53:07.575Z,5.67
2018-07-21T19:55:35.572Z,5.55
2018-07-21T19:58:03.979Z,6.45
2018-07-21T20:00:31.899Z,6.60
2018-07-21T20:02:59.886Z,6.92
2018-07-21T20:05:27.800Z,7.05
2018-07-21T20:08:58.562Z,7.30
2018-07-21T20:11:26.543Z,7.10
2018-07-21T20:13:55.710Z,8.03
2018-07-21T20:16:23.733Z,7.80
2018-07-21T20:18:52.722Z,8.80
2018-07-21T20:21:20.700Z,8.90
2018-07-21T20:23:48.778Z,9.30
2018-07-21T20:26:17.310Z,8.00
2018-07-21T20:28:45.264Z,7.62
2018-07-21T20:31:13.083Z,7.30
2018-07-21T20:33:41.181Z,7.25
2018-07-21T20:36:09.116Z,7.12
2018-07-21T20:38:37.353Z,6.72
2018-07-21T20:41:05.651Z,6.85
2018-07-21T20:44:36.546Z,6.15
2018-07-21T20:47:04.598Z,6.85
2018-07-21T20:49:32.732Z,8.13
2018-07-21T20:52:00.575Z,5.42
2018-07-21T20:54:29.027Z,5.03
2018-07-21T20:56:57.061Z,4.87
2018-07-21T20:59:25.105Z,5.87
2018-07-21T21:01:53.238Z,7.20
2018-07-21T21:04:21.112Z,6.22
2018-07-21T21:07:52.893Z,5.92
2018-07-21T21:10:20.967Z,5.83
2018-07-21T21:12:48.868Z,5.67
2018-07-21T21:15:16.929Z,6.03
2018-07-21T21:17:44.772Z,5.50
2018-07-21T21:20:12.663Z,5.55
2018-07-21T21:22:40.588Z,5.80
2018-07-21T21:25:08.777Z,5.33
2018-07-21T21:27:36.745Z,5.60
2018-07-21T21:30:05.325Z,5.62
2018-07-21T21:32:33.248Z,5.55
2018-07-21T21:35:01.215Z,5.47
2018-07-21T21:37:29.506Z,5.92
2018-07-21T21:39:57.456Z,5.42
2018-07-21T21:42:25.390Z,5.30
2018-07-21T21:44:53.490Z,5.62
2018-07-21T21:47:21.394Z,5.37
2018-07-21T21:49:49.324Z,5.60
2018-07-21T21:52:17.140Z,5.97
2018-07-21T21:54:45.058Z,6.33
2018-07-21T21:57:12.882Z,5.60
2018-07-21T21:59:41.073Z,5.75
2018-07-21T22:02:08.975Z,5.97
2018-07-21T22:04:36.973Z,5.55
2018-07-21T22:07:05.201Z,5.65
2018-07-21T22:09:33.186Z,5.50
2018-07-21T22:12:01.239Z,6.05
2018-07-21T22:14:29.272Z,5.70
2018-07-21T22:16:57.310Z,5.83
2018-07-21T22:19:25.307Z,6.00
2018-07-21T22:21:53.277Z,6.20
2018-07-21T22:24:21.355Z,6.00
2018-07-21T22:26:49.421Z,5.85
2018-07-21T22:29:17.927Z,6.20
2018-07-21T22:31:45.914Z,6.10
2018-07-21T22:34:13.867Z,6.30
2018-07-21T22:36:42.304Z,5.58
2018-07-21T22:39:11.496Z,6.60
2018-07-21T22:41:39.517Z,6.13
2018-07-21T22:44:07.558Z,6.58
2018-07-21T22:46:35.726Z,6.55
2018-07-21T22:49:03.631Z,6.63
2018-07-21T22:51:31.824Z,6.67
2018-07-21T22:53:59.736Z,6.10
2018-07-21T22:56:27.720Z,7.03
2018-07-21T22:58:55.735Z,7.00
2018-07-21T23:01:23.699Z,6.77
2018-07-21T23:03:51.536Z,6.70
2018-07-21T23:06:19.438Z,7.00
2018-07-21T23:08:47.388Z,7.00
2018-07-21T23:11:16.346Z,6.53
2018-07-21T23:13:44.551Z,6.13
2018-07-21T23:16:12.610Z,6.67
2018-07-21T23:18:40.704Z,5.93
2018-07-21T23:21:08.916Z,6.70
2018-07-21T23:23:37.047Z,6.33
2018-07-21T23:26:05.045Z,6.53
2018-07-21T23:28:33.239Z,5.73
2018-07-21T23:31:01.124Z,5.77
2018-07-21T23:33:28.896Z,5.60
2018-07-21T23:35:56.955Z,6.43
2018-07-21T23:38:24.988Z,6.07
2018-07-21T23:40:52.995Z,6.20
2018-07-21T23:43:21.055Z,6.40
2018-07-21T23:45:48.952Z,6.27
2018-07-21T23:48:16.964Z,6.60
2018-07-21T23:50:45.074Z,6.13
2018-07-21T23:53:12.870Z,5.83
2018-07-21T23:55:40.881Z,6.37
2018-07-21T23:58:09.050Z,5.93
